OICK 
Khoram Abad Airport
Iran 
ICAOIATAStatus
OICKKHDOperational
LatitudeLongitude
33° 26' 7" N48° 16' 58" E
33.43539848.282902
Local Time (DST+5)UTC (GMT+4)
04-24-2014 11:11 pm04-24-2014 18:41
Sunrise-SunsetLocalUTC
Begin Civil Twilight06:08 am01:38
Sunrise06:34 am02:04
Sunset07:55 pm15:25
End Civil Twilight08:21 pm15:51

Current Weather

METARObservedFlight Conditions

OICK 241150Z 26008KT 9999 FEW040 24/01 Q1016

Thu, Apr 24, 2014 @ 11:50 UTC(Z)

(6 Hours, 51 Minutes ago)

VFR

(Visual Flight Rules)

WindVisibilityCloudsConditions
260° at 8 knots (15 kph)
10 km or more
  • Few at 4,000' AGL
  • No significant weather
TemperaturesReadingsPrecipitation
Current Temp24°C (75°F)
Dewpoint1°C (34°F)
Humidity22%
Altimeter30"Hg
Sea Level Pressure1016mb
Field Elevation3789.37'
None Recorded

Additional weather within a 185.2km radius of OICK

Location METAR
OICC

144.8km N (315°)

41 minutes ago
OIHH

161.3km N (009°)

41 minutes ago
OICI

174.8km W (276°)

41 minutes ago
VFR VFR    MVFR MVFR    IFR IFR    LIFR LIFR    Unknown Unknown

Previous 24 hour Weather Graphs

  Loading...

CheckWX.com is intended as a tool to help pilots better visualize weather data.   It is not intended as a substitute for an official weather briefing obtained from a Flight Service Station.
CheckWX.com does not meet the FAA requirements for an official pre-flight weather briefing.   Therefore, it's important that pilots still call and obtain an official FSS pre-flight weather briefing.